Terminal Aerodrome Forecast
Issued by NWS Portland, OR

Home | Current Version | Previous Version | Text Only | Print | Product List | Glossary On
Versions: 1 2 3 4 5 6 7 8 9 10 11 12 13 14 15 16 17 18 19 20 21 22 23 24 25 26 27 28 29 30 31 32 33 34 35 36 37 38 39 40
000
FTUS46 KPQR 171139
TAFHIO
TAF
KHIO 171139Z 1712/1812 VRB03KT 1 1/2SM -RA BR BKN005 OVC035
     FM172100 21003KT 4SM -RA BKN009 OVC015
     FM180700 13006KT 6SM -RA BR BKN012 OVC025=

USA.gov is the U.S. government's official web portal to all federal, state and local government web resources and services.